createdAt,value
2023-11-12T00:03:23.634Z,7.39
2023-11-12T00:18:25.934Z,7.31
2023-11-12T00:33:28.663Z,7.18
2023-11-12T00:48:30.760Z,7.25
2023-11-12T01:03:34.817Z,7.25
2023-11-12T01:18:39.948Z,7.30
2023-11-12T01:33:42.033Z,7.35
2023-11-12T01:48:44.270Z,7.42
2023-11-12T02:03:46.824Z,7.41
2023-11-12T02:18:49.096Z,7.36
2023-11-12T02:33:51.540Z,7.42
2023-11-12T02:49:09.138Z,7.41
2023-11-12T03:04:11.232Z,7.34
2023-11-12T03:19:13.335Z,7.31
2023-11-12T03:34:15.900Z,7.34
2023-11-12T03:49:18.363Z,7.27
2023-11-12T04:04:20.433Z,7.31
2023-11-12T04:19:22.564Z,7.35
2023-11-12T04:34:24.621Z,7.31
2023-11-12T04:49:26.781Z,7.27
2023-11-12T05:04:30.059Z,7.12
2023-11-12T05:19:32.354Z,6.97
2023-11-12T05:34:34.385Z,6.80
2023-11-12T05:49:36.622Z,6.59
2023-11-12T06:04:39.139Z,6.39
2023-11-12T06:19:41.222Z,6.52
2023-11-12T06:34:43.483Z,6.54
2023-11-12T06:49:47.362Z,6.45
2023-11-12T07:04:52.371Z,6.15
2023-11-12T07:19:56.705Z,6.12
2023-11-12T07:34:58.796Z,5.91
2023-11-12T07:50:02.457Z,5.82
2023-11-12T08:05:09.245Z,5.40
2023-11-12T08:20:12.174Z,5.43
2023-11-12T08:35:14.404Z,5.35
2023-11-12T08:50:16.634Z,5.36
2023-11-12T09:05:18.706Z,5.74
2023-11-12T09:20:20.815Z,6.10
2023-11-12T09:35:22.905Z,6.21
2023-11-12T09:50:26.575Z,6.38
2023-11-12T10:05:32.785Z,6.25
2023-11-12T10:20:42.506Z,6.65
2023-11-12T10:35:45.241Z,7.01
2023-11-12T10:50:47.344Z,7.34
2023-11-12T11:05:50.212Z,7.69
2023-11-12T11:21:04.638Z,8.11
2023-11-12T11:36:09.556Z,8.34
2023-11-12T11:51:38.737Z,8.79
2023-11-12T12:06:48.550Z,8.81
2023-11-12T12:21:56.344Z,8.75
2023-11-12T12:36:58.640Z,8.90
2023-11-12T12:52:02.007Z,8.85
2023-11-12T13:07:08.501Z,8.56
2023-11-12T13:22:11.599Z,8.56
2023-11-12T13:37:14.366Z,8.46
2023-11-12T13:52:18.647Z,8.41
2023-11-12T14:07:21.292Z,8.14
2023-11-12T14:22:23.608Z,7.86
2023-11-12T14:37:26.315Z,7.48
2023-11-12T14:52:29.153Z,7.15
2023-11-12T15:07:31.354Z,6.96
2023-11-12T15:22:33.931Z,6.69
2023-11-12T15:37:40.112Z,6.32
2023-11-12T15:52:43.705Z,6.20
2023-11-12T16:07:50.051Z,6.45
2023-11-12T16:22:53.962Z,6.63
2023-11-12T16:37:57.804Z,6.75
2023-11-12T16:53:00.688Z,6.86
2023-11-12T17:08:06.229Z,6.70
2023-11-12T17:23:16.672Z,6.35
2023-11-12T17:38:19.981Z,6.28
2023-11-12T17:53:23.511Z,6.31
2023-11-12T18:08:28.702Z,6.41
2023-11-12T18:23:32.214Z,5.95
2023-11-12T18:38:38.490Z,5.46
2023-11-12T18:53:42.311Z,5.18
2023-11-12T19:08:45.996Z,5.18
2023-11-12T19:23:49.371Z,5.03
2023-11-12T19:38:53.591Z,5.25
2023-11-12T19:53:59.439Z,5.55
2023-11-12T20:09:03.135Z,5.89
2023-11-12T20:24:07.460Z,6.14
2023-11-12T20:39:17.258Z,6.25
2023-11-12T20:54:20.726Z,6.31
2023-11-12T21:09:23.361Z,6.33
2023-11-12T21:24:27.694Z,6.31
2023-11-12T21:39:29.896Z,6.35
2023-11-12T21:54:32.055Z,6.42
2023-11-12T22:09:34.170Z,6.41
2023-11-12T22:24:36.604Z,6.39
2023-11-12T22:39:38.711Z,6.33
2023-11-12T22:54:42.700Z,6.36
2023-11-12T23:09:46.319Z,6.29
2023-11-12T23:24:48.665Z,6.32
2023-11-12T23:39:50.693Z,6.20
2023-11-12T23:54:53.186Z,6.11
